createdAt,value
2019-01-28T00:01:43.179Z,-1.40
2019-01-28T00:04:15.230Z,-1.40
2019-01-28T00:06:45.536Z,-1.50
2019-01-28T00:09:17.871Z,-1.50
2019-01-28T00:11:51.097Z,-1.50
2019-01-28T00:14:23.117Z,-1.60
2019-01-28T00:16:56.698Z,-1.60
2019-01-28T00:19:30.058Z,-1.70
2019-01-28T00:22:02.698Z,-1.70
2019-01-28T00:24:35.819Z,-1.80
2019-01-28T00:27:07.578Z,-1.80
2019-01-28T00:29:40.237Z,-1.90
2019-01-28T00:32:14.521Z,-1.70
2019-01-28T00:34:47.071Z,-1.70
2019-01-28T00:37:16.936Z,-1.70
2019-01-28T00:39:52.280Z,-1.80
2019-01-28T00:42:23.738Z,-1.90
2019-01-28T00:44:55.816Z,-1.90
2019-01-28T00:47:28.104Z,-2.00
2019-01-28T00:50:01.097Z,-2.00
2019-01-28T00:52:33.033Z,-2.00
2019-01-28T00:55:04.518Z,-2.00
2019-01-28T00:57:37.316Z,-2.00
2019-01-28T01:00:09.586Z,-2.00
2019-01-28T01:02:41.195Z,-2.00
2019-01-28T01:05:13.705Z,-2.00
2019-01-28T01:07:47.573Z,-2.00
2019-01-28T01:10:17.788Z,-2.00
2019-01-28T01:12:47.204Z,-2.00
2019-01-28T01:15:16.827Z,-2.10
2019-01-28T01:17:47.736Z,-2.10
2019-01-28T01:20:19.177Z,-2.10
2019-01-28T01:22:50.693Z,-2.10
2019-01-28T01:25:22.725Z,-2.10
2019-01-28T01:27:57.739Z,-2.10
2019-01-28T01:30:29.256Z,-2.10
2019-01-28T01:33:00.717Z,-2.20
2019-01-28T01:35:33.120Z,-2.20
2019-01-28T01:38:06.768Z,-2.20
2019-01-28T01:40:38.814Z,-2.20
2019-01-28T01:43:10.813Z,-2.20
2019-01-28T01:45:43.752Z,-2.20
2019-01-28T01:48:15.797Z,-2.20
2019-01-28T01:50:47.526Z,-2.20
2019-01-28T01:53:19.436Z,-2.20
2019-01-28T01:55:52.735Z,-2.30
2019-01-28T01:58:24.428Z,-2.30
2019-01-28T02:00:57.850Z,-2.20
2019-01-28T02:03:29.461Z,-2.20
2019-01-28T02:05:59.647Z,-2.20
2019-01-28T02:08:29.485Z,-2.20
2019-01-28T02:11:03.018Z,-2.20
2019-01-28T02:13:34.890Z,-2.20
2019-01-28T02:16:06.320Z,-2.20
2019-01-28T02:18:37.500Z,-2.20
2019-01-28T02:21:06.664Z,-2.30
2019-01-28T02:23:36.385Z,-2.20
2019-01-28T02:26:06.833Z,-2.20
2019-01-28T02:28:36.716Z,-2.20
2019-01-28T02:31:05.729Z,-2.20
2019-01-28T02:33:36.328Z,-2.30
2019-01-28T02:36:06.457Z,-2.30
2019-01-28T02:38:38.051Z,-2.30
2019-01-28T02:41:07.673Z,-2.30
2019-01-28T02:43:36.777Z,-2.30
2019-01-28T02:46:08.240Z,-2.30
2019-01-28T02:48:40.309Z,-2.30
2019-01-28T02:51:11.816Z,-2.40
2019-01-28T02:53:41.657Z,-2.40
2019-01-28T02:56:13.235Z,-2.40
2019-01-28T02:58:44.325Z,-2.40
2019-01-28T03:01:14.493Z,-2.40
2019-01-28T03:03:46.631Z,-2.40
2019-01-28T03:06:18.644Z,-2.50
2019-01-28T03:08:50.484Z,-2.40
2019-01-28T03:11:23.489Z,-2.50
2019-01-28T03:13:56.425Z,-2.40
2019-01-28T03:16:27.195Z,-2.40
2019-01-28T03:18:59.678Z,-2.40
2019-01-28T03:21:32.873Z,-2.40
2019-01-28T03:24:06.650Z,-2.40
2019-01-28T03:26:37.442Z,-2.40
2019-01-28T03:29:07.753Z,-2.40
2019-01-28T03:31:38.626Z,-2.40
2019-01-28T03:34:09.993Z,-2.40
2019-01-28T03:36:41.270Z,-2.40
2019-01-28T03:39:12.237Z,-2.40
2019-01-28T03:41:42.538Z,-2.40
2019-01-28T03:44:13.805Z,-2.30
2019-01-28T03:46:49.225Z,-2.30
2019-01-28T03:49:21.265Z,-2.40
2019-01-28T03:51:52.477Z,-2.40
2019-01-28T03:54:22.816Z,-2.30
2019-01-28T03:56:52.234Z,-2.30
2019-01-28T03:59:25.290Z,-2.30
2019-01-28T04:01:55.351Z,-2.40
2019-01-28T04:04:26.574Z,-2.30
2019-01-28T04:06:58.008Z,-2.30
2019-01-28T04:09:32.044Z,-2.30
2019-01-28T04:12:04.021Z,-2.20
2019-01-28T04:14:35.852Z,-2.20
2019-01-28T04:17:07.710Z,-2.20
2019-01-28T04:19:39.663Z,-2.20
2019-01-28T04:22:11.020Z,-2.20
2019-01-28T04:24:43.598Z,-2.30
2019-01-28T04:27:15.447Z,-2.30
2019-01-28T04:29:47.484Z,-2.30
2019-01-28T04:32:18.801Z,-2.20
2019-01-28T04:34:50.829Z,-2.20
2019-01-28T04:37:21.781Z,-2.20
2019-01-28T04:39:53.101Z,-2.30
2019-01-28T04:42:23.101Z,-2.30
2019-01-28T04:44:54.388Z,-2.30
2019-01-28T04:47:25.464Z,-2.30
2019-01-28T04:49:54.956Z,-2.30
2019-01-28T04:52:27.053Z,-2.40
2019-01-28T04:54:59.347Z,-2.30
2019-01-28T04:57:31.924Z,-2.30
2019-01-28T05:00:05.585Z,-2.30
2019-01-28T05:02:36.641Z,-2.40
2019-01-28T05:05:09.966Z,-2.40
2019-01-28T05:07:41.361Z,-2.40
2019-01-28T05:10:14.618Z,-2.50
2019-01-28T05:12:46.096Z,-2.50
2019-01-28T05:15:17.221Z,-2.50
2019-01-28T05:17:47.542Z,-2.50
2019-01-28T05:20:18.042Z,-2.50
2019-01-28T05:22:50.154Z,-2.50
2019-01-28T05:25:20.171Z,-2.50
2019-01-28T05:27:52.756Z,-2.50
2019-01-28T05:30:26.373Z,-2.50
2019-01-28T05:32:58.416Z,-2.50
2019-01-28T05:35:33.193Z,-2.40
2019-01-28T05:38:04.756Z,-2.30
2019-01-28T05:40:38.745Z,-2.30
2019-01-28T05:43:12.941Z,-2.40
2019-01-28T05:45:44.165Z,-2.30
2019-01-28T05:48:15.145Z,-2.30
2019-01-28T05:50:50.957Z,-2.30
2019-01-28T05:53:21.832Z,-2.30
2019-01-28T05:55:54.304Z,-2.20
2019-01-28T05:58:28.138Z,-2.20
2019-01-28T06:00:59.151Z,-2.20
2019-01-28T06:03:31.157Z,-2.20
2019-01-28T06:06:02.971Z,-2.20
2019-01-28T06:08:33.870Z,-2.20
2019-01-28T06:11:07.444Z,-2.20
2019-01-28T06:13:38.989Z,-2.20
2019-01-28T06:16:12.738Z,-2.10
2019-01-28T06:18:54.445Z,-2.10
2019-01-28T06:21:26.585Z,-2.00
2019-01-28T06:23:58.408Z,-2.00
2019-01-28T06:26:30.192Z,-2.10
2019-01-28T06:29:00.456Z,-2.10
2019-01-28T06:31:32.860Z,-2.00
2019-01-28T06:34:03.824Z,-2.00
2019-01-28T06:36:36.488Z,-2.00
2019-01-28T06:39:10.892Z,-2.10
2019-01-28T06:41:44.205Z,-2.10
2019-01-28T06:44:14.796Z,-2.10
2019-01-28T06:46:45.252Z,-2.10
2019-01-28T06:49:22.001Z,-2.00
2019-01-28T06:51:53.365Z,-2.00
2019-01-28T06:54:25.897Z,-1.90
2019-01-28T06:56:58.069Z,-1.90
2019-01-28T06:59:29.874Z,-1.80
2019-01-28T07:02:03.225Z,-1.80
2019-01-28T07:04:32.938Z,-1.80
2019-01-28T07:07:02.042Z,-1.80
2019-01-28T07:09:33.930Z,-1.70
2019-01-28T07:12:05.868Z,-1.70
2019-01-28T07:14:37.806Z,-1.70
2019-01-28T07:17:09.929Z,-1.70
2019-01-28T07:19:42.401Z,-1.70
2019-01-28T07:22:13.243Z,-1.70
2019-01-28T07:24:42.280Z,-1.70
2019-01-28T07:27:14.870Z,-1.80
2019-01-28T07:29:47.723Z,-1.80
2019-01-28T07:32:18.747Z,-1.70
2019-01-28T07:34:50.697Z,-1.80
2019-01-28T07:37:21.066Z,-1.80
2019-01-28T07:39:52.652Z,-1.90
2019-01-28T07:42:22.800Z,-1.90
2019-01-28T07:44:51.755Z,-1.90
2019-01-28T07:47:20.950Z,-1.90
2019-01-28T07:49:51.028Z,-1.90
2019-01-28T07:52:22.570Z,-1.90
2019-01-28T07:54:54.905Z,-2.00
2019-01-28T07:57:27.073Z,-2.00
2019-01-28T07:59:59.580Z,-2.00
2019-01-28T08:02:31.471Z,-2.00
2019-01-28T08:05:04.021Z,-2.00
2019-01-28T08:07:34.316Z,-2.00
2019-01-28T08:10:06.730Z,-2.10
2019-01-28T08:12:37.801Z,-2.10
2019-01-28T08:15:10.891Z,-2.10
2019-01-28T08:17:40.077Z,-2.20
2019-01-28T08:20:14.572Z,-2.10
2019-01-28T08:22:46.574Z,-2.10
2019-01-28T08:25:17.719Z,-2.20
2019-01-28T08:27:49.688Z,-2.20
2019-01-28T08:30:20.554Z,-2.20
2019-01-28T08:32:51.507Z,-2.20
2019-01-28T08:35:21.735Z,-2.20
2019-01-28T08:37:51.309Z,-2.20
2019-01-28T08:40:22.523Z,-2.20
2019-01-28T08:42:54.485Z,-2.20
2019-01-28T08:45:26.288Z,-2.20
2019-01-28T08:47:59.948Z,-2.20
2019-01-28T08:50:32.521Z,-2.20
2019-01-28T08:53:03.156Z,-2.20
2019-01-28T08:55:35.396Z,-2.20
2019-01-28T08:58:04.717Z,-2.20
2019-01-28T09:00:39.548Z,-2.20
2019-01-28T09:03:10.997Z,-2.30
2019-01-28T09:05:42.900Z,-2.30
2019-01-28T09:08:12.752Z,-2.30
2019-01-28T09:10:43.188Z,-2.20
2019-01-28T09:13:13.400Z,-2.20
2019-01-28T09:15:44.410Z,-2.20
2019-01-28T09:18:15.041Z,-2.20
2019-01-28T09:20:45.582Z,-2.20
2019-01-28T09:23:18.001Z,-2.20
2019-01-28T09:25:51.476Z,-2.20
2019-01-28T09:28:22.440Z,-2.20
2019-01-28T09:30:55.220Z,-2.20
2019-01-28T09:33:29.965Z,-2.20
2019-01-28T09:36:03.608Z,-2.20
2019-01-28T09:38:36.009Z,-2.20
2019-01-28T09:41:06.068Z,-2.10
2019-01-28T09:43:35.666Z,-2.10
2019-01-28T09:46:05.005Z,-2.10
2019-01-28T09:48:36.077Z,-2.10
2019-01-28T09:51:09.118Z,-2.20
2019-01-28T09:53:41.584Z,-2.10
2019-01-28T09:56:13.645Z,-2.10
2019-01-28T09:58:43.153Z,-2.20
2019-01-28T10:01:13.229Z,-2.20
2019-01-28T10:03:43.117Z,-2.20
2019-01-28T10:06:14.130Z,-2.20
2019-01-28T10:08:49.029Z,-2.10
2019-01-28T10:11:20.089Z,-2.10
2019-01-28T10:13:50.986Z,-2.10
2019-01-28T10:16:22.372Z,-2.10
2019-01-28T10:18:55.817Z,-2.10
2019-01-28T10:21:26.913Z,-2.10
2019-01-28T10:23:57.961Z,-2.10
2019-01-28T10:26:28.989Z,-2.10
2019-01-28T10:29:01.626Z,-2.10
2019-01-28T10:31:36.395Z,-2.10
2019-01-28T10:34:09.085Z,-2.10
2019-01-28T10:36:39.587Z,-2.10
2019-01-28T10:39:13.720Z,-2.10
2019-01-28T10:41:46.130Z,-2.10
2019-01-28T10:44:27.209Z,-2.10
2019-01-28T10:46:58.090Z,-2.10
2019-01-28T10:49:28.352Z,-2.10
2019-01-28T10:52:00.672Z,-2.10
2019-01-28T10:54:31.021Z,-2.10
2019-01-28T10:57:03.661Z,-2.10
2019-01-28T10:59:35.916Z,-2.10
2019-01-28T11:02:07.320Z,-2.10
2019-01-28T11:04:39.242Z,-2.10
2019-01-28T11:07:11.086Z,-2.10
2019-01-28T11:09:42.878Z,-2.10
2019-01-28T11:12:14.995Z,-2.10
2019-01-28T11:14:47.682Z,-2.10
2019-01-28T11:17:18.593Z,-2.00
2019-01-28T11:19:51.227Z,-2.00
2019-01-28T11:22:24.928Z,-2.00
2019-01-28T11:24:57.256Z,-2.00
2019-01-28T11:27:30.767Z,-2.00
2019-01-28T11:30:03.158Z,-2.00
2019-01-28T11:32:34.002Z,-2.00
2019-01-28T11:35:04.966Z,-2.00
2019-01-28T11:37:38.347Z,-2.00
2019-01-28T11:40:11.401Z,-2.00
2019-01-28T11:42:41.640Z,-2.00
2019-01-28T11:45:17.400Z,-2.00
2019-01-28T11:47:48.573Z,-2.00
2019-01-28T11:50:22.718Z,-2.00
2019-01-28T11:52:55.425Z,-2.00
2019-01-28T11:55:27.434Z,-2.00
2019-01-28T11:57:59.346Z,-2.00
2019-01-28T12:00:41.550Z,-2.00
2019-01-28T12:03:11.977Z,-2.00
2019-01-28T12:05:42.374Z,-2.00
2019-01-28T12:08:15.254Z,-2.00
2019-01-28T12:10:48.485Z,-2.00
2019-01-28T12:13:19.801Z,-2.00
2019-01-28T12:15:52.840Z,-2.00
2019-01-28T12:18:27.569Z,-2.00
2019-01-28T12:20:59.922Z,-2.00
2019-01-28T12:23:34.580Z,-2.00
2019-01-28T12:26:06.517Z,-2.00
2019-01-28T12:28:38.401Z,-2.00
2019-01-28T12:31:09.770Z,-2.00
2019-01-28T12:33:40.964Z,-2.00
2019-01-28T12:36:14.443Z,-2.00
2019-01-28T12:38:46.786Z,-2.00
2019-01-28T12:41:18.483Z,-1.90
2019-01-28T12:43:50.488Z,-1.90
2019-01-28T12:46:19.617Z,-1.90
2019-01-28T12:48:48.468Z,-1.80
2019-01-28T12:51:18.124Z,-1.80
2019-01-28T12:53:48.156Z,-1.80
2019-01-28T12:56:17.584Z,-1.80
2019-01-28T12:58:51.177Z,-1.90
2019-01-28T13:01:22.760Z,-1.80
2019-01-28T13:03:53.192Z,-1.80
2019-01-28T13:06:24.121Z,-1.80
2019-01-28T13:08:56.554Z,-1.80
2019-01-28T13:11:27.544Z,-1.70
2019-01-28T13:13:58.792Z,-1.70
2019-01-28T13:16:30.358Z,-1.70
2019-01-28T13:18:59.844Z,-1.70
2019-01-28T13:21:29.424Z,-1.70
2019-01-28T13:24:01.388Z,-1.70
2019-01-28T13:26:32.502Z,-1.70
2019-01-28T13:29:03.838Z,-1.70
2019-01-28T13:31:36.003Z,-1.70
2019-01-28T13:34:09.021Z,-1.60
2019-01-28T13:36:38.953Z,-1.60
2019-01-28T13:39:09.994Z,-1.60
2019-01-28T13:41:39.995Z,-1.60
2019-01-28T13:44:11.941Z,-1.50
2019-01-28T13:46:44.914Z,-1.50
2019-01-28T13:49:17.961Z,-1.50
2019-01-28T13:51:50.615Z,-1.40
2019-01-28T13:54:22.178Z,-1.40
2019-01-28T13:56:51.789Z,-1.30
2019-01-28T13:59:24.281Z,-1.30
2019-01-28T14:01:56.877Z,-1.30
2019-01-28T14:04:29.233Z,-1.30
2019-01-28T14:06:58.700Z,-1.30
2019-01-28T14:09:27.556Z,-1.30
2019-01-28T14:12:00.111Z,-1.30
2019-01-28T14:14:32.105Z,-1.20
2019-01-28T14:17:04.745Z,-1.20
2019-01-28T14:19:46.083Z,-1.30
2019-01-28T14:22:13.564Z,-1.30
2019-01-28T14:24:44.106Z,-1.30
2019-01-28T14:27:19.099Z,-1.30
2019-01-28T14:29:54.458Z,-1.30
2019-01-28T14:32:25.169Z,-1.30
2019-01-28T14:34:57.305Z,-1.30
2019-01-28T14:37:28.312Z,-1.30
2019-01-28T14:39:58.890Z,-1.40
2019-01-28T14:42:30.113Z,-1.30
2019-01-28T14:45:01.521Z,-1.30
2019-01-28T14:47:33.661Z,-1.30
2019-01-28T14:50:03.128Z,-1.30
2019-01-28T14:52:34.541Z,-1.30
2019-01-28T14:55:08.714Z,-1.30
2019-01-28T14:57:39.080Z,-1.30
2019-01-28T15:00:10.745Z,-1.30
2019-01-28T15:02:41.779Z,-1.30
2019-01-28T15:05:14.923Z,-1.30
2019-01-28T15:07:48.361Z,-1.30
2019-01-28T15:10:21.915Z,-1.30
2019-01-28T15:12:53.451Z,-1.30
2019-01-28T15:15:27.790Z,-1.30
2019-01-28T15:18:00.250Z,-1.30
2019-01-28T15:20:32.938Z,-1.40
2019-01-28T15:23:04.368Z,-1.40
2019-01-28T15:25:36.908Z,-1.30
2019-01-28T15:28:10.564Z,-1.40
2019-01-28T15:30:44.408Z,-1.30
2019-01-28T15:33:16.107Z,-1.30
2019-01-28T15:35:47.569Z,-1.40
2019-01-28T15:38:21.326Z,-1.40
2019-01-28T15:40:51.792Z,-1.40
2019-01-28T15:43:24.620Z,-1.40
2019-01-28T15:45:57.705Z,-1.30
2019-01-28T15:48:33.104Z,-1.40
2019-01-28T15:51:03.740Z,-1.40
2019-01-28T15:53:34.123Z,-1.40
2019-01-28T15:56:23.656Z,-1.40
2019-01-28T15:58:57.169Z,-1.40
2019-01-28T16:01:28.757Z,-1.40
2019-01-28T16:04:00.716Z,-1.40
2019-01-28T16:06:31.807Z,-1.40
2019-01-28T16:09:02.744Z,-1.40
2019-01-28T16:11:34.249Z,-1.40
2019-01-28T16:14:07.064Z,-1.30
2019-01-28T16:16:36.392Z,-1.30
2019-01-28T16:19:06.016Z,-1.30
2019-01-28T16:21:36.108Z,-1.30
2019-01-28T16:24:08.248Z,-1.30
2019-01-28T16:26:40.946Z,-1.30
2019-01-28T16:29:11.012Z,-1.20
2019-01-28T16:31:41.932Z,-1.30
2019-01-28T16:34:14.859Z,-1.30
2019-01-28T16:36:46.258Z,-1.30
2019-01-28T16:39:18.509Z,-1.30
2019-01-28T16:41:49.466Z,-1.30
2019-01-28T16:44:22.730Z,-1.30
2019-01-28T16:46:53.686Z,-1.30
2019-01-28T16:49:25.578Z,-1.30
2019-01-28T16:51:57.493Z,-1.40
2019-01-28T16:54:30.897Z,-1.30
2019-01-28T16:57:03.440Z,-1.20
2019-01-28T16:59:36.936Z,-1.20
2019-01-28T17:02:08.385Z,-1.20
2019-01-28T17:04:41.644Z,-1.10
2019-01-28T17:07:12.557Z,-1.10
2019-01-28T17:09:45.313Z,-1.10
2019-01-28T17:12:18.473Z,-1.00
2019-01-28T17:14:51.625Z,-1.10
2019-01-28T17:17:24.717Z,-1.10
2019-01-28T17:19:56.072Z,-1.10
2019-01-28T17:22:28.760Z,-1.00
2019-01-28T17:25:01.513Z,-1.10
2019-01-28T17:27:32.426Z,-1.10
2019-01-28T17:30:07.509Z,-1.10
2019-01-28T17:32:38.930Z,-1.10
2019-01-28T17:35:11.869Z,-1.10
2019-01-28T17:37:41.491Z,-1.10
2019-01-28T17:40:10.697Z,-1.10
2019-01-28T17:42:42.781Z,-1.00
2019-01-28T17:45:16.739Z,-1.00
2019-01-28T17:47:47.675Z,-1.00
2019-01-28T17:50:24.451Z,-1.00
2019-01-28T17:52:55.263Z,-0.90
2019-01-28T17:55:28.660Z,-0.90
2019-01-28T17:58:01.129Z,-0.90
2019-01-28T18:00:53.879Z,-0.80
2019-01-28T18:03:24.140Z,-0.80
2019-01-28T18:05:55.613Z,-0.70
2019-01-28T18:08:27.862Z,-0.70
2019-01-28T18:10:56.831Z,-0.70
2019-01-28T18:13:26.378Z,-0.70
2019-01-28T18:15:56.792Z,-0.60
2019-01-28T18:18:28.796Z,-0.60
2019-01-28T18:21:01.296Z,-0.50
2019-01-28T18:23:47.073Z,-0.50
2019-01-28T18:26:18.601Z,-0.40
2019-01-28T18:28:50.955Z,-0.40
2019-01-28T18:31:23.400Z,-0.40
2019-01-28T18:33:54.635Z,-0.40
2019-01-28T18:36:25.604Z,-0.40
2019-01-28T18:38:56.110Z,-0.30
2019-01-28T18:41:26.410Z,-0.30
2019-01-28T18:43:56.524Z,-0.30
2019-01-28T18:46:26.685Z,-0.30
2019-01-28T18:48:56.777Z,-0.30
2019-01-28T18:51:28.561Z,-0.30
2019-01-28T18:53:58.931Z,-0.30
2019-01-28T18:56:31.948Z,-0.20
2019-01-28T18:59:05.578Z,-0.20
2019-01-28T19:01:37.352Z,-0.20
2019-01-28T19:04:09.772Z,-0.20
2019-01-28T19:06:58.192Z,-0.20
2019-01-28T19:09:37.480Z,-0.20
2019-01-28T19:12:26.376Z,-0.20
2019-01-28T19:15:18.437Z,-0.20
2019-01-28T19:18:27.501Z,-0.10
2019-01-28T19:21:08.459Z,-0.20
2019-01-28T19:23:42.675Z,-0.10
2019-01-28T19:26:14.091Z,-0.10
2019-01-28T19:28:44.390Z,-0.10
2019-01-28T19:31:33.984Z,-0.10
2019-01-28T19:34:06.862Z,-0.10
2019-01-28T19:36:39.146Z,-0.10
2019-01-28T19:39:10.488Z,-0.10
2019-01-28T19:41:40.935Z,-0.10
2019-01-28T19:44:10.501Z,-0.10
2019-01-28T19:46:41.392Z,-0.10
2019-01-28T19:49:11.985Z,-0.10
2019-01-28T19:51:43.724Z,-0.10
2019-01-28T19:54:14.226Z,-0.10
2019-01-28T19:56:44.131Z,-0.10
2019-01-28T19:59:16.637Z,-0.10
2019-01-28T20:01:46.971Z,-0.10
2019-01-28T20:04:17.972Z,-0.10
2019-01-28T20:06:49.860Z,0.00
2019-01-28T20:09:20.889Z,0.00
2019-01-28T20:11:53.413Z,0.00
2019-01-28T20:14:26.634Z,0.00
2019-01-28T20:16:57.177Z,0.10
2019-01-28T20:19:31.005Z,0.10
2019-01-28T20:22:03.537Z,0.10
2019-01-28T20:24:34.944Z,0.10
2019-01-28T20:27:06.330Z,0.10
2019-01-28T20:29:36.744Z,0.20
2019-01-28T20:32:10.184Z,0.20
2019-01-28T20:34:43.438Z,0.20
2019-01-28T20:37:15.729Z,0.20
2019-01-28T20:39:47.409Z,0.20
2019-01-28T20:42:17.833Z,0.20
2019-01-28T20:44:47.541Z,0.30
2019-01-28T20:47:19.048Z,0.30
2019-01-28T20:49:51.912Z,0.40
2019-01-28T20:52:22.931Z,0.30
2019-01-28T20:54:56.466Z,0.30
2019-01-28T20:57:27.040Z,0.30
2019-01-28T20:59:57.189Z,0.30
2019-01-28T21:02:29.638Z,0.30
2019-01-28T21:05:00.205Z,0.30
2019-01-28T21:07:31.040Z,0.40
2019-01-28T21:10:02.995Z,0.40
2019-01-28T21:12:34.706Z,0.30
2019-01-28T21:15:06.917Z,0.40
2019-01-28T21:17:39.217Z,0.40
2019-01-28T21:20:11.913Z,0.40
2019-01-28T21:22:43.837Z,0.30
2019-01-28T21:25:16.787Z,0.30
2019-01-28T21:27:49.798Z,0.30
2019-01-28T21:30:21.445Z,0.30
2019-01-28T21:32:51.497Z,0.30
2019-01-28T21:35:33.049Z,0.30
2019-01-28T21:38:08.555Z,0.30
2019-01-28T21:40:40.121Z,0.30
2019-01-28T21:43:11.529Z,0.40
2019-01-28T21:45:43.015Z,0.30
2019-01-28T21:48:14.178Z,0.30
2019-01-28T21:50:47.412Z,0.40
2019-01-28T21:53:18.836Z,0.40
2019-01-28T21:55:53.290Z,0.40
2019-01-28T21:58:27.602Z,0.50
2019-01-28T22:00:58.474Z,0.50
2019-01-28T22:03:29.972Z,0.50
2019-01-28T22:06:04.090Z,0.50
2019-01-28T22:08:38.025Z,0.60
2019-01-28T22:11:08.511Z,0.60
2019-01-28T22:13:40.326Z,0.60
2019-01-28T22:16:13.882Z,0.60
2019-01-28T22:18:45.178Z,0.60
2019-01-28T22:21:15.401Z,0.60
2019-01-28T22:23:46.313Z,0.60
2019-01-28T22:26:20.385Z,0.60
2019-01-28T22:28:51.433Z,0.70
2019-01-28T22:31:22.449Z,0.70
2019-01-28T22:33:52.918Z,0.70
2019-01-28T22:36:23.533Z,0.70
2019-01-28T22:38:56.178Z,0.70
2019-01-28T22:41:25.620Z,0.70
2019-01-28T22:43:55.701Z,0.70
2019-01-28T22:46:24.959Z,0.70
2019-01-28T22:48:55.306Z,0.70
2019-01-28T22:51:27.765Z,0.70
2019-01-28T22:54:01.108Z,0.70
2019-01-28T22:56:32.114Z,0.70
2019-01-28T22:59:04.432Z,0.70
2019-01-28T23:01:38.505Z,0.70
2019-01-28T23:04:12.824Z,0.70
2019-01-28T23:06:42.098Z,0.70
2019-01-28T23:09:12.853Z,0.70
2019-01-28T23:11:44.375Z,0.70
2019-01-28T23:14:17.802Z,0.70
2019-01-28T23:16:50.189Z,0.70
2019-01-28T23:19:21.547Z,0.70
2019-01-28T23:21:54.749Z,0.80
2019-01-28T23:24:25.917Z,0.80
2019-01-28T23:26:57.048Z,0.80
2019-01-28T23:29:26.651Z,0.80
2019-01-28T23:31:58.773Z,0.80
2019-01-28T23:34:31.113Z,0.80
2019-01-28T23:37:01.935Z,0.80
2019-01-28T23:39:33.486Z,0.80
2019-01-28T23:42:03.810Z,0.80
2019-01-28T23:44:35.807Z,0.80
2019-01-28T23:47:06.144Z,0.80
2019-01-28T23:49:37.485Z,0.90
2019-01-28T23:52:08.332Z,0.80
2019-01-28T23:54:39.825Z,0.80
2019-01-28T23:57:09.408Z,0.80
2019-01-28T23:59:39.371Z,0.90
